Time;durP1;ratioP1;P1;durP2;ratioP2;P2;SDS_P1;SDS_P2;PMS_P1;PMS_P2;Temp;Humidity;BMP_temperature;BMP_pressure;BME280_temperature;BME280_humidity;BME280_pressure;Samples;Min_cycle;Max_cycle;Signal;HPM_P1;HPM_P2
2022/11/28 00:01:10;;;;;;;64.45;24.92;;;1.80;99.90;;;;;;4431573;28;657119;-64
2022/11/28 00:03:57;;;;;;;49.30;21.23;;;1.80;99.90;;;;;;4405592;28;659734;-65
2022/11/28 00:06:46;;;;;;;44.00;18.43;;;1.80;99.90;;;;;;4428127;28;659138;-64
2022/11/28 00:09:33;;;;;;;39.80;18.10;;;1.90;99.90;;;;;;4405373;28;658804;-65
2022/11/28 00:12:20;;;;;;;45.07;19.30;;;1.80;99.90;;;;;;4418773;28;658124;-66
2022/11/28 00:15:08;;;;;;;48.97;20.75;;;1.80;99.90;;;;;;4432205;28;658166;-65
2022/11/28 00:17:56;;;;;;;45.00;20.30;;;1.80;99.90;;;;;;4408964;28;657421;-66
2022/11/28 00:20:44;;;;;;;42.47;19.27;;;1.80;99.90;;;;;;4427523;28;658322;-65
2022/11/28 00:23:32;;;;;;;40.70;17.30;;;1.80;99.90;;;;;;4408507;28;658037;-65
2022/11/28 00:26:20;;;;;;;45.27;19.23;;;1.80;99.90;;;;;;4426986;28;657577;-65
2022/11/28 00:29:07;;;;;;;36.17;17.25;;;1.80;99.90;;;;;;4408600;28;659183;-65
2022/11/28 00:31:54;;;;;;;35.70;15.67;;;1.80;99.90;;;;;;4427741;28;658037;-65
2022/11/28 00:34:43;;;;;;;39.93;17.60;;;1.80;99.90;;;;;;4408285;28;658318;-65
2022/11/28 00:37:30;;;;;;;40.00;17.67;;;1.70;99.90;;;;;;4410703;28;657691;-66
2022/11/28 00:40:17;;;;;;;38.65;16.77;;;1.70;99.90;;;;;;4431212;28;658079;-67
2022/11/28 00:43:04;;;;;;;34.37;15.10;;;1.60;99.90;;;;;;4426924;28;657496;-64
2022/11/28 00:45:51;;;;;;;26.07;12.17;;;1.60;99.90;;;;;;4404329;28;658029;-65
2022/11/28 00:48:38;;;;;;;32.77;14.63;;;1.60;99.90;;;;;;4427295;28;658458;-64
2022/11/28 00:51:28;;;;;;;35.87;15.77;;;1.60;99.90;;;;;;4408238;28;657446;-65
2022/11/28 00:54:15;;;;;;;28.97;13.13;;;1.50;99.90;;;;;;4415942;28;657945;-65
2022/11/28 00:57:02;;;;;;;35.38;14.75;;;1.50;99.90;;;;;;4430901;28;658982;-64
2022/11/28 00:59:49;;;;;;;27.27;13.30;;;1.50;99.90;;;;;;4427025;28;657919;-65
2022/11/28 01:02:36;;;;;;;23.07;11.43;;;1.50;99.90;;;;;;4404244;28;658190;-65
2022/11/28 01:05:23;;;;;;;38.60;16.03;;;1.50;99.90;;;;;;4427079;28;658390;-65
2022/11/28 01:08:12;;;;;;;54.43;16.87;;;1.50;99.90;;;;;;4411044;28;657871;-65
2022/11/28 01:10:59;;;;;;;35.30;14.67;;;1.50;99.90;;;;;;4430336;28;658252;-65
2022/11/28 01:13:46;;;;;;;40.43;17.03;;;1.50;99.90;;;;;;4411055;28;657796;-65
2022/11/28 01:16:33;;;;;;;47.90;19.37;;;1.50;99.90;;;;;;4433314;28;658818;-65
2022/11/28 01:19:20;;;;;;;60.13;21.50;;;1.50;99.90;;;;;;4411166;28;658463;-66
2022/11/28 01:22:07;;;;;;;37.05;16.58;;;1.50;99.90;;;;;;4434159;28;657655;-65
2022/11/28 01:24:56;;;;;;;32.13;16.10;;;1.50;99.90;;;;;;4429245;28;658013;-64
2022/11/28 01:27:43;;;;;;;36.90;16.10;;;1.50;99.90;;;;;;4407342;28;657944;-64
2022/11/28 01:30:30;;;;;;;44.90;19.27;;;1.50;99.90;;;;;;4422203;28;657406;-66
2022/11/28 01:33:17;;;;;;;43.27;17.63;;;1.50;99.90;;;;;;4433484;28;658925;-65
2022/11/28 01:36:05;;;;;;;36.63;15.07;;;1.50;99.90;;;;;;4429555;28;657552;-65
2022/11/28 01:38:52;;;;;;;45.13;19.20;;;1.50;99.90;;;;;;4410876;28;658710;-65
2022/11/28 01:41:41;;;;;;;30.77;13.57;;;1.50;99.90;;;;;;4429651;28;657297;-66
2022/11/28 01:45:02;;;;;;;30.30;13.53;;;1.50;99.90;;;;;;4407317;28;657779;-65
2022/11/28 01:47:49;;;;;;;46.90;19.87;;;1.50;99.90;;;;;;4380661;28;657784;-65
2022/11/28 01:50:36;;;;;;;36.70;15.90;;;1.50;99.90;;;;;;4411640;28;657332;-64
2022/11/28 01:53:23;;;;;;;30.00;13.10;;;1.50;99.90;;;;;;4434532;28;658632;-65
2022/11/28 01:56:14;;;;;;;21.83;10.33;;;1.50;99.90;;;;;;4410921;28;657735;-65
2022/11/28 01:59:04;;;;;;;21.03;10.83;;;1.60;99.90;;;;;;4411158;28;657580;-65
2022/11/28 02:01:51;;;;;;;44.03;18.67;;;1.60;99.90;;;;;;4410864;28;657861;-65
2022/11/28 02:04:38;;;;;;;28.73;13.20;;;1.50;99.90;;;;;;4429567;28;658689;-65
2022/11/28 02:07:25;;;;;;;30.57;13.53;;;1.60;99.90;;;;;;4410410;28;657375;-65
2022/11/28 02:10:14;;;;;;;30.40;13.67;;;1.60;99.90;;;;;;4433674;28;658123;-65
2022/11/28 02:13:22;;;;;;;26.57;11.73;;;1.60;99.90;;;;;;4410672;28;657853;-65
2022/11/28 02:16:22;;;;;;;32.27;14.57;;;1.60;99.90;;;;;;4410682;28;657614;-65
2022/11/28 02:19:25;;;;;;;30.73;14.33;;;1.60;99.90;;;;;;4426174;28;657489;-66
2022/11/28 02:22:13;;;;;;;30.97;14.53;;;1.60;99.90;;;;;;4406117;28;658378;-65
2022/11/28 02:25:08;;;;;;;35.13;17.02;;;1.60;99.90;;;;;;4410378;28;657913;-65
2022/11/28 02:28:04;;;;;;;31.47;14.30;;;1.60;99.90;;;;;;4387451;28;658489;-65
2022/11/28 02:30:54;;;;;;;30.93;13.67;;;1.60;99.90;;;;;;4410202;28;657683;-67
2022/11/28 02:33:43;;;;;;;30.83;13.87;;;1.60;99.90;;;;;;4409763;28;657776;-65
2022/11/28 02:36:32;;;;;;;33.00;14.93;;;1.70;99.90;;;;;;4410164;28;658857;-65
2022/11/28 02:39:22;;;;;;;35.93;16.43;;;1.70;99.90;;;;;;4428534;28;658021;-65
2022/11/28 02:42:14;;;;;;;34.80;18.03;;;1.70;99.90;;;;;;4423982;28;657456;-66
2022/11/28 02:45:04;;;;;;;30.07;13.73;;;1.70;99.90;;;;;;4408203;28;657838;-65
2022/11/28 02:47:54;;;;;;;33.10;15.17;;;1.70;99.90;;;;;;4407206;28;657341;-66
2022/11/28 02:50:45;;;;;;;34.75;14.73;;;1.70;99.90;;;;;;4409831;28;657483;-65
2022/11/28 02:53:32;;;;;;;29.63;14.13;;;1.70;99.90;;;;;;4409772;28;658119;-65
2022/11/28 02:56:19;;;;;;;32.65;13.73;;;1.60;99.90;;;;;;4425971;28;657566;-66
2022/11/28 02:59:24;;;;;;;30.93;14.20;;;1.60;99.90;;;;;;4409642;28;657845;-64
2022/11/28 03:02:15;;;;;;;36.10;15.13;;;1.60;99.90;;;;;;4857081;28;658261;-65
2022/11/28 03:05:05;;;;;;;29.33;13.27;;;1.60;99.90;;;;;;4405662;28;658684;-65
2022/11/28 03:08:03;;;;;;;33.40;14.53;;;1.60;99.90;;;;;;4407441;28;658845;-65
2022/11/28 03:10:51;;;;;;;36.00;15.63;;;1.60;99.90;;;;;;4386716;28;658162;-65
2022/11/28 03:13:40;;;;;;;36.87;15.67;;;1.60;99.90;;;;;;4427885;28;658594;-64
2022/11/28 03:16:27;;;;;;;33.83;15.87;;;1.70;99.90;;;;;;4405541;28;659006;-64
2022/11/28 03:19:18;;;;;;;31.97;15.27;;;1.70;99.90;;;;;;4424931;28;657570;-66
2022/11/28 03:22:09;;;;;;;33.07;15.17;;;1.60;99.90;;;;;;4417647;28;657774;-66
2022/11/28 03:25:02;;;;;;;34.47;15.67;;;1.60;99.90;;;;;;4409684;28;657949;-64
2022/11/28 03:27:51;;;;;;;36.10;16.00;;;1.60;99.90;;;;;;4405607;28;658060;-64
2022/11/28 03:30:41;;;;;;;32.37;14.70;;;1.60;99.90;;;;;;4404986;28;658853;-65
2022/11/28 03:33:31;;;;;;;39.80;17.03;;;1.60;99.90;;;;;;4405179;28;658443;-64
2022/11/28 03:36:19;;;;;;;36.90;15.87;;;1.60;99.90;;;;;;4405289;28;658177;-64
2022/11/28 03:39:08;;;;;;;36.83;15.97;;;1.60;99.90;;;;;;4405171;28;659153;-65
2022/11/28 03:41:58;;;;;;;35.90;16.47;;;1.60;99.90;;;;;;4408827;28;657743;-65
2022/11/28 03:44:46;;;;;;;40.13;18.03;;;1.60;99.90;;;;;;4408468;28;658130;-66
2022/11/28 03:47:35;;;;;;;37.38;16.05;;;1.60;99.90;;;;;;4426990;28;659784;-65
2022/11/28 03:50:24;;;;;;;40.53;17.10;;;1.60;99.90;;;;;;4405044;28;659062;-65
2022/11/28 03:53:13;;;;;;;35.93;15.50;;;1.60;99.90;;;;;;4408822;28;657546;-65
2022/11/28 03:56:02;;;;;;;34.20;16.27;;;1.70;99.90;;;;;;4408852;28;657744;-66
2022/11/28 03:58:52;;;;;;;33.17;15.10;;;1.70;99.90;;;;;;4427872;28;657555;-64
2022/11/28 04:01:44;;;;;;;35.57;15.17;;;1.70;99.90;;;;;;4404943;28;657691;-65
2022/11/28 04:04:33;;;;;;;32.30;15.13;;;1.60;99.90;;;;;;4382479;28;658929;-65
2022/11/28 04:07:23;;;;;;;33.00;15.60;;;1.70;99.90;;;;;;4409238;28;658241;-65
2022/11/28 04:10:13;;;;;;;33.03;15.47;;;1.60;99.90;;;;;;4409155;28;657515;-66
2022/11/28 04:13:02;;;;;;;39.03;17.50;;;1.70;99.90;;;;;;4408968;28;657210;-65
2022/11/28 04:15:54;;;;;;;38.27;17.27;;;1.70;99.90;;;;;;4427647;28;657149;-64
2022/11/28 04:18:49;;;;;;;47.80;19.10;;;1.80;99.90;;;;;;4382147;28;658321;-64
2022/11/28 04:21:38;;;;;;;38.13;17.90;;;1.70;99.90;;;;;;4385741;28;658224;-65
2022/11/28 04:24:27;;;;;;;44.57;18.37;;;1.70;99.90;;;;;;4408677;28;657512;-66
2022/11/28 04:27:16;;;;;;;41.97;17.90;;;1.70;99.90;;;;;;4427433;28;658424;-65
2022/11/28 04:30:04;;;;;;;35.30;15.80;;;1.70;99.90;;;;;;4404598;28;658385;-65
2022/11/28 04:32:54;;;;;;;34.97;16.03;;;1.70;99.90;;;;;;4408314;28;657550;-64
2022/11/28 04:35:42;;;;;;;34.00;15.60;;;1.70;99.90;;;;;;4408289;28;657375;-65
2022/11/28 04:38:29;;;;;;;33.00;15.27;;;1.60;99.90;;;;;;4426927;28;657960;-65
2022/11/28 04:41:18;;;;;;;35.70;16.50;;;1.60;99.90;;;;;;4410232;28;657780;-65
2022/11/28 04:44:08;;;;;;;40.23;18.23;;;1.60;99.90;;;;;;4416287;28;657946;-66
2022/11/28 04:46:56;;;;;;;37.03;16.83;;;1.60;99.90;;;;;;4412367;28;657577;-64
2022/11/28 04:49:44;;;;;;;38.30;17.57;;;1.70;99.90;;;;;;4434978;28;658763;-64
2022/11/28 04:52:34;;;;;;;38.93;17.10;;;1.70;99.90;;;;;;4412072;28;657507;-65
2022/11/28 04:55:25;;;;;;;42.07;18.17;;;1.70;99.90;;;;;;4410690;28;657727;-65
2022/11/28 04:58:14;;;;;;;56.80;21.13;;;1.70;99.90;;;;;;4411983;28;659371;-65
2022/11/28 05:01:01;;;;;;;35.97;17.27;;;1.60;99.90;;;;;;4619861;28;657485;-64
2022/11/28 05:03:48;;;;;;;47.87;18.40;;;1.60;99.90;;;;;;4692788;28;534220;-64
2022/11/28 05:06:37;;;;;;;50.80;19.40;;;1.60;99.90;;;;;;4411444;28;657844;-65
2022/11/28 05:09:24;;;;;;;44.53;18.53;;;1.70;99.90;;;;;;4430332;28;658285;-65
2022/11/28 05:12:11;;;;;;;38.30;16.00;;;1.70;99.90;;;;;;4408048;28;657572;-64
2022/11/28 05:14:58;;;;;;;34.27;16.30;;;1.60;99.90;;;;;;4430697;28;658581;-66
2022/11/28 05:17:46;;;;;;;32.47;15.30;;;1.70;99.90;;;;;;4413834;28;657972;-65
2022/11/28 05:20:33;;;;;;;33.23;14.90;;;1.70;99.90;;;;;;4430418;28;658747;-65
2022/11/28 05:23:21;;;;;;;43.95;15.52;;;1.70;99.90;;;;;;4411333;28;657631;-66
2022/11/28 05:26:09;;;;;;;37.07;14.80;;;1.70;99.90;;;;;;4430362;28;658276;-65
2022/11/28 05:28:56;;;;;;;35.03;15.23;;;1.70;99.90;;;;;;4411046;28;657923;-65
2022/11/28 05:31:43;;;;;;;34.77;16.53;;;1.70;99.90;;;;;;4429687;28;659379;-65
2022/11/28 05:34:30;;;;;;;41.20;17.10;;;1.70;99.90;;;;;;4410995;28;657451;-66
2022/11/28 05:37:18;;;;;;;34.87;16.40;;;1.70;99.90;;;;;;4430375;28;659834;-64
2022/11/28 05:40:08;;;;;;;33.20;15.37;;;1.70;99.90;;;;;;4423643;28;657600;-66
2022/11/28 05:42:55;;;;;;;35.43;16.50;;;1.70;99.90;;;;;;4418804;28;657480;-66
2022/11/28 05:45:42;;;;;;;35.33;15.18;;;1.70;99.90;;;;;;4433975;28;658859;-65
2022/11/28 05:48:30;;;;;;;33.00;14.90;;;1.70;99.90;;;;;;4427123;28;657765;-65
2022/11/28 05:51:17;;;;;;;35.28;15.98;;;1.70;99.90;;;;;;4433724;28;657673;-65
2022/11/28 05:54:05;;;;;;;34.67;14.63;;;1.70;99.90;;;;;;4429744;28;658068;-65
2022/11/28 05:56:53;;;;;;;32.73;14.87;;;1.70;99.90;;;;;;4407027;28;658901;-65
2022/11/28 05:59:40;;;;;;;31.80;15.80;;;1.70;99.90;;;;;;4410726;28;657779;-66
2022/11/28 06:02:27;;;;;;;35.73;15.83;;;1.70;99.90;;;;;;4433151;28;659221;-64
2022/11/28 06:05:14;;;;;;;34.57;16.00;;;1.70;99.90;;;;;;4430193;28;658208;-64
2022/11/28 06:08:01;;;;;;;36.27;15.90;;;1.70;99.90;;;;;;4411088;28;657473;-65
2022/11/28 06:10:56;;;;;;;33.20;15.53;;;1.70;99.90;;;;;;4430322;28;657916;-64
2022/11/28 06:13:45;;;;;;;33.53;15.13;;;1.70;99.90;;;;;;4407336;28;658132;-64
2022/11/28 06:16:32;;;;;;;33.77;15.17;;;1.70;99.90;;;;;;4406737;28;658721;-64
2022/11/28 06:19:19;;;;;;;35.87;16.27;;;1.70;99.90;;;;;;4428639;28;657788;-65
2022/11/28 06:22:06;;;;;;;35.97;16.27;;;1.70;99.90;;;;;;4410950;28;657726;-64
2022/11/28 06:24:53;;;;;;;36.07;15.60;;;1.80;99.90;;;;;;4428727;28;658921;-65
2022/11/28 06:27:40;;;;;;;37.58;17.50;;;1.80;99.90;;;;;;4410204;28;657528;-66
2022/11/28 06:30:29;;;;;;;39.50;17.77;;;1.70;99.90;;;;;;4433534;28;657754;-64
2022/11/28 06:33:16;;;;;;;44.37;21.47;;;1.70;99.90;;;;;;4410105;28;658157;-65
2022/11/28 06:36:03;;;;;;;46.03;21.80;;;1.70;99.90;;;;;;4433210;28;658650;-64
2022/11/28 06:38:50;;;;;;;54.77;21.73;;;1.70;99.90;;;;;;4408899;28;657764;-66
2022/11/28 06:41:37;;;;;;;41.23;17.97;;;1.70;99.90;;;;;;4428432;28;659338;-64
2022/11/28 06:44:25;;;;;;;43.20;18.87;;;1.70;99.90;;;;;;4426389;28;657916;-66
2022/11/28 06:47:13;;;;;;;105.70;33.00;;;1.70;99.90;;;;;;4432813;28;657852;-64
2022/11/28 06:50:01;;;;;;;45.23;20.03;;;1.70;99.90;;;;;;4408876;28;658756;-64
2022/11/28 06:52:48;;;;;;;45.73;20.87;;;1.70;99.90;;;;;;4428661;28;657845;-65
2022/11/28 06:55:35;;;;;;;45.03;19.40;;;1.70;99.90;;;;;;4418789;28;657921;-66
2022/11/28 06:58:22;;;;;;;48.75;20.58;;;1.80;99.90;;;;;;4432614;28;658200;-65
2022/11/28 07:01:11;;;;;;;48.27;20.63;;;1.80;99.90;;;;;;4655268;28;657406;-65
2022/11/28 07:04:00;;;;;;;46.37;21.23;;;1.80;99.90;;;;;;4652304;28;534158;-64
2022/11/28 07:06:47;;;;;;;50.17;21.43;;;1.90;99.90;;;;;;4404942;28;659170;-65
2022/11/28 07:09:35;;;;;;;45.03;20.27;;;1.90;99.90;;;;;;4426180;28;657584;-66
2022/11/28 07:12:22;;;;;;;41.67;19.48;;;2.00;99.90;;;;;;4432514;28;657504;-66
2022/11/28 07:15:10;;;;;;;40.77;19.10;;;2.00;99.90;;;;;;4428151;28;658370;-65
2022/11/28 07:17:57;;;;;;;38.70;18.43;;;2.00;99.90;;;;;;4408919;28;657742;-64
2022/11/28 07:20:46;;;;;;;39.50;17.83;;;2.00;99.90;;;;;;4427976;28;658289;-65
2022/11/28 07:23:33;;;;;;;42.67;17.87;;;2.00;99.90;;;;;;4405381;28;658518;-64
2022/11/28 07:26:21;;;;;;;37.20;17.63;;;2.00;99.90;;;;;;4417681;28;657881;-66
2022/11/28 07:29:09;;;;;;;39.43;18.13;;;2.10;99.90;;;;;;4430165;28;658646;-64
2022/11/28 07:31:56;;;;;;;44.30;18.40;;;2.10;99.90;;;;;;4409933;28;657927;-64
2022/11/28 07:34:44;;;;;;;40.03;17.37;;;2.10;99.90;;;;;;4427971;28;658531;-64
2022/11/28 07:37:32;;;;;;;41.23;19.50;;;2.10;99.90;;;;;;4406593;28;657705;-65
2022/11/28 07:40:21;;;;;;;36.63;15.97;;;2.20;99.90;;;;;;4428029;28;657898;-65
2022/11/28 07:43:08;;;;;;;40.47;18.60;;;2.20;99.90;;;;;;4404695;28;658687;-64
2022/11/28 07:45:56;;;;;;;36.73;17.33;;;2.20;99.90;;;;;;4408882;28;658418;-64
2022/11/28 07:48:43;;;;;;;47.70;19.27;;;2.30;99.90;;;;;;4432121;28;658964;-65
2022/11/28 07:51:31;;;;;;;35.27;15.43;;;2.30;99.90;;;;;;4416768;28;657311;-66
2022/11/28 07:54:20;;;;;;;38.67;17.57;;;2.30;99.90;;;;;;4427878;28;659044;-64
2022/11/28 07:57:07;;;;;;;39.57;17.23;;;2.40;99.90;;;;;;4408664;28;657861;-65
2022/11/28 07:59:54;;;;;;;42.10;16.33;;;2.40;99.90;;;;;;4427500;28;658280;-64
2022/11/28 08:02:41;;;;;;;43.67;19.97;;;2.50;99.90;;;;;;4409429;28;657555;-65
2022/11/28 08:05:28;;;;;;;67.53;24.87;;;2.50;99.90;;;;;;4430620;28;658324;-65
2022/11/28 08:08:16;;;;;;;38.33;19.20;;;2.50;99.90;;;;;;4411472;28;657577;-66
2022/11/28 08:11:05;;;;;;;46.93;20.03;;;2.50;99.90;;;;;;4431825;28;658289;-65
2022/11/28 08:13:52;;;;;;;41.57;19.83;;;2.60;99.90;;;;;;4404924;28;658967;-64
2022/11/28 08:16:43;;;;;;;47.03;20.57;;;2.60;99.90;;;;;;4425575;28;657663;-66
2022/11/28 08:19:30;;;;;;;40.97;18.33;;;2.60;99.90;;;;;;4408299;28;657331;-65
2022/11/28 08:22:17;;;;;;;39.63;19.33;;;2.60;99.90;;;;;;4431662;28;658071;-64
2022/11/28 08:25:05;;;;;;;51.47;21.87;;;2.60;99.90;;;;;;4426933;28;657366;-65
2022/11/28 08:27:53;;;;;;;46.00;19.70;;;2.60;99.90;;;;;;4408426;28;658395;-65
2022/11/28 08:30:40;;;;;;;43.10;19.13;;;2.70;99.90;;;;;;4408453;28;657638;-64
2022/11/28 08:33:28;;;;;;;43.03;19.10;;;2.60;99.90;;;;;;4427143;28;659057;-65
2022/11/28 08:36:16;;;;;;;52.77;22.67;;;2.70;99.90;;;;;;4421425;28;657516;-66
2022/11/28 08:39:04;;;;;;;46.87;20.00;;;2.60;99.90;;;;;;4431271;28;659293;-65
2022/11/28 08:41:51;;;;;;;47.13;19.60;;;2.70;99.90;;;;;;4408633;28;658139;-65
2022/11/28 08:44:39;;;;;;;60.73;24.57;;;2.70;99.90;;;;;;4431706;28;658182;-64
2022/11/28 08:47:26;;;;;;;38.63;18.10;;;2.70;99.90;;;;;;4408070;28;657749;-65
2022/11/28 08:50:13;;;;;;;40.57;16.53;;;2.70;99.90;;;;;;4427315;28;657755;-64
2022/11/28 08:53:01;;;;;;;31.70;14.93;;;2.80;99.90;;;;;;4408372;28;658941;-64
2022/11/28 08:55:48;;;;;;;42.60;19.40;;;2.80;99.90;;;;;;4431142;28;658523;-65
2022/11/28 08:58:35;;;;;;;34.73;16.90;;;2.90;99.90;;;;;;4415706;28;657548;-65
2022/11/28 09:01:24;;;;;;;34.30;15.20;;;2.90;99.90;;;;;;4714889;28;658353;-64
2022/11/28 09:04:11;;;;;;;33.67;14.67;;;3.00;99.90;;;;;;4594687;28;534943;-64
2022/11/28 09:06:59;;;;;;;30.67;14.17;;;3.00;99.90;;;;;;4427044;28;658101;-64
2022/11/28 09:09:46;;;;;;;28.07;13.77;;;3.10;99.90;;;;;;4408070;28;657542;-66
2022/11/28 09:12:33;;;;;;;29.43;13.63;;;3.10;99.90;;;;;;4430892;28;658832;-65
2022/11/28 09:15:20;;;;;;;29.13;13.73;;;3.20;99.90;;;;;;4410968;28;657907;-65
2022/11/28 09:18:09;;;;;;;31.73;13.32;;;3.30;99.90;;;;;;4430745;28;658955;-65
2022/11/28 09:20:59;;;;;;;27.33;13.93;;;3.30;99.90;;;;;;4407972;28;657631;-64
2022/11/28 09:23:46;;;;;;;26.20;13.70;;;3.40;99.90;;;;;;4404949;28;657325;-64
2022/11/28 09:26:34;;;;;;;30.50;14.67;;;3.40;99.90;;;;;;4427352;28;658408;-65
2022/11/28 09:29:21;;;;;;;27.00;13.80;;;3.50;99.90;;;;;;4411005;28;657841;-65
2022/11/28 09:32:08;;;;;;;27.47;13.23;;;3.60;99.90;;;;;;4434185;28;658504;-65
2022/11/28 09:34:56;;;;;;;28.67;13.77;;;3.50;99.90;;;;;;4420216;28;657908;-66
2022/11/28 09:37:43;;;;;;;31.00;15.60;;;3.60;99.90;;;;;;4429912;28;658139;-65
2022/11/28 09:40:33;;;;;;;30.97;14.90;;;3.60;99.90;;;;;;4410932;28;657642;-65
2022/11/28 09:43:28;;;;;;;27.40;13.37;;;3.70;99.90;;;;;;4410862;28;657550;-65
2022/11/28 09:46:18;;;;;;;32.70;14.47;;;3.70;99.90;;;;;;4391159;28;657282;-65
2022/11/28 09:49:18;;;;;;;35.45;15.93;;;3.70;99.90;;;;;;4410767;28;657793;-65
2022/11/28 09:52:12;;;;;;;33.90;14.33;;;3.80;99.90;;;;;;4424024;28;657412;-67
2022/11/28 09:55:11;;;;;;;35.03;15.70;;;3.90;99.90;;;;;;4406721;28;657768;-64
2022/11/28 09:57:58;;;;;;;35.80;15.47;;;3.90;99.90;;;;;;4406733;28;658462;-64
2022/11/28 10:00:47;;;;;;;31.13;14.83;;;3.90;99.90;;;;;;4410796;28;657370;-65
2022/11/28 10:03:40;;;;;;;30.30;15.20;;;4.00;99.90;;;;;;4429118;28;658005;-64
2022/11/28 10:06:29;;;;;;;30.73;15.57;;;4.10;99.90;;;;;;4384021;28;658458;-65
2022/11/28 10:09:25;;;;;;;31.20;15.13;;;4.00;99.90;;;;;;4410228;28;657297;-64
2022/11/28 10:12:22;;;;;;;36.00;16.80;;;4.10;99.90;;;;;;4383663;28;658397;-65
2022/11/28 10:15:20;;;;;;;36.43;16.60;;;4.10;99.90;;;;;;4406490;28;658255;-64
2022/11/28 10:18:20;;;;;;;42.20;17.13;;;4.20;99.90;;;;;;4383062;28;659521;-64
2022/11/28 10:21:15;;;;;;;37.90;16.93;;;4.20;99.90;;;;;;4383677;28;658508;-64
2022/11/28 10:24:04;;;;;;;35.37;16.40;;;4.30;99.90;;;;;;4406653;28;658221;-64
2022/11/28 10:26:54;;;;;;;39.83;18.35;;;4.30;99.90;;;;;;4410776;28;657563;-64
2022/11/28 10:29:43;;;;;;;34.33;16.27;;;4.40;99.90;;;;;;4410988;28;657770;-65
2022/11/28 10:32:32;;;;;;;33.17;15.80;;;4.50;99.90;;;;;;4411043;28;657703;-65
2022/11/28 10:35:23;;;;;;;36.83;16.20;;;4.60;99.90;;;;;;4429437;28;657385;-65
2022/11/28 10:38:12;;;;;;;47.13;19.13;;;4.80;99.90;;;;;;4387255;28;658047;-66
2022/11/28 10:41:01;;;;;;;32.93;15.40;;;5.10;99.90;;;;;;4433079;28;657489;-64
2022/11/28 10:43:54;;;;;;;30.93;15.00;;;5.50;99.90;;;;;;4406190;28;659134;-65
2022/11/28 10:46:50;;;;;;;31.70;15.13;;;6.00;99.90;;;;;;4383054;28;659232;-66
2022/11/28 10:49:41;;;;;;;28.30;14.00;;;6.60;99.90;;;;;;4382931;28;658128;-65
2022/11/28 10:52:33;;;;;;;31.90;14.20;;;7.60;99.90;;;;;;4405968;28;657672;-65
2022/11/28 10:55:26;;;;;;;26.53;14.10;;;8.90;99.90;;;;;;4398843;28;658367;-67
2022/11/28 10:58:16;;;;;;;23.20;12.57;;;10.30;99.90;;;;;;4405902;28;658574;-65
2022/11/28 11:01:05;;;;;;;30.97;13.30;;;11.00;97.50;;;;;;4612813;28;659275;-65
2022/11/28 11:03:52;;;;;;;27.33;12.93;;;11.90;92.50;;;;;;4670034;28;535458;-66
2022/11/28 11:06:39;;;;;;;21.97;12.47;;;12.80;85.80;;;;;;4426418;28;659153;-65
2022/11/28 11:09:26;;;;;;;21.87;12.20;;;13.30;77.90;;;;;;4407411;28;658671;-65
2022/11/28 11:12:20;;;;;;;25.00;13.00;;;14.50;72.60;;;;;;4427373;28;659468;-65
2022/11/28 11:15:18;;;;;;;23.10;13.50;;;13.60;71.80;;;;;;4381183;28;659592;-65
2022/11/28 11:18:21;;;;;;;32.17;14.47;;;13.40;71.60;;;;;;4385465;28;660011;-66
2022/11/28 11:21:10;;;;;;;21.77;11.90;;;14.30;69.60;;;;;;4404415;28;659124;-66
2022/11/28 11:24:11;;;;;;;23.93;13.07;;;14.30;65.00;;;;;;4408252;28;660293;-66
2022/11/28 11:27:04;;;;;;;19.63;11.57;;;14.80;68.40;;;;;;4404404;28;658915;-65
2022/11/28 11:29:51;;;;;;;21.35;12.65;;;15.70;63.30;;;;;;4407758;28;658679;-65
2022/11/28 11:32:38;;;;;;;24.75;14.40;;;15.60;60.90;;;;;;4427071;28;659926;-65
2022/11/28 11:35:28;;;;;;;18.27;11.00;;;15.90;59.00;;;;;;4407447;28;658514;-65
2022/11/28 11:38:17;;;;;;;22.10;11.98;;;16.30;58.40;;;;;;4416570;28;659058;-67
2022/11/28 11:41:19;;;;;;;19.58;12.23;;;17.40;57.90;;;;;;4426682;28;658468;-65
2022/11/28 11:44:33;;;;;;;18.27;11.93;;;17.40;55.00;;;;;;4380997;28;659983;-65
2022/11/28 11:47:20;;;;;;;19.33;11.07;;;16.50;54.20;;;;;;4408026;28;659399;-66
2022/11/28 11:50:16;;;;;;;24.08;14.35;;;15.40;53.90;;;;;;4430361;28;659605;-65
2022/11/28 11:53:06;;;;;;;19.70;12.60;;;13.90;58.80;;;;;;4404124;28;659331;-65
2022/11/28 11:55:54;;;;;;;17.80;10.73;;;14.30;60.50;;;;;;4404064;28;660085;-65
2022/11/28 11:58:44;;;;;;;24.33;13.20;;;15.20;58.00;;;;;;4408076;28;658921;-65
2022/11/28 12:01:31;;;;;;;30.40;16.33;;;14.90;58.70;;;;;;4408176;28;658426;-65
2022/11/28 12:04:20;;;;;;;20.27;11.23;;;14.60;58.50;;;;;;4430997;28;659906;-65
2022/11/28 12:07:25;;;;;;;19.57;11.57;;;13.80;58.60;;;;;;4408351;28;659947;-64
2022/11/28 12:10:15;;;;;;;17.53;10.23;;;13.00;61.20;;;;;;4380922;28;658766;-65
2022/11/28 12:13:02;;;;;;;25.17;12.07;;;12.20;62.70;;;;;;4407969;28;659656;-65
2022/11/28 12:15:54;;;;;;;17.60;9.33;;;11.50;65.60;;;;;;4426209;28;659876;-65
2022/11/28 12:18:48;;;;;;;18.03;10.17;;;10.80;67.70;;;;;;4385718;28;658213;-64
2022/11/28 12:21:37;;;;;;;26.27;11.30;;;9.80;73.10;;;;;;4392776;28;658378;-66
2022/11/28 12:24:26;;;;;;;19.67;10.63;;;9.30;77.80;;;;;;4427667;28;657542;-64
2022/11/28 12:27:19;;;;;;;20.17;10.30;;;8.50;83.70;;;;;;4404697;28;658788;-64
2022/11/28 12:30:17;;;;;;;18.33;10.63;;;7.80;91.00;;;;;;4381708;28;659100;-66
2022/11/28 12:33:29;;;;;;;23.10;10.43;;;7.50;95.90;;;;;;4404655;28;657970;-64
2022/11/28 12:36:19;;;;;;;25.17;10.40;;;7.40;99.40;;;;;;4409005;28;657272;-65
2022/11/28 12:39:16;;;;;;;17.43;10.13;;;7.40;99.90;;;;;;4408323;28;658492;-64
2022/11/28 12:42:32;;;;;;;21.30;9.90;;;7.30;99.90;;;;;;4408386;28;657502;-65
2022/11/28 12:45:42;;;;;;;32.07;13.23;;;7.00;99.90;;;;;;4420375;28;657054;-65
2022/11/28 12:48:40;;;;;;;29.10;12.37;;;6.90;99.90;;;;;;4404243;28;657520;-64
2022/11/28 12:51:34;;;;;;;25.17;10.53;;;6.80;99.90;;;;;;4381503;28;658688;-64
2022/11/28 12:54:48;;;;;;;22.33;10.35;;;6.60;99.90;;;;;;4381844;28;658689;-64
2022/11/28 12:57:39;;;;;;;19.67;9.40;;;6.40;99.90;;;;;;4385637;28;658364;-65
2022/11/28 13:00:27;;;;;;;23.27;10.60;;;6.20;99.90;;;;;;4485379;28;657462;-63
2022/11/28 13:03:23;;;;;;;23.83;10.47;;;5.90;99.90;;;;;;4824112;28;534905;-65
2022/11/28 13:06:17;;;;;;;23.43;11.30;;;5.80;99.90;;;;;;4401240;28;657273;-65
2022/11/28 13:09:21;;;;;;;25.13;11.97;;;5.60;99.90;;;;;;4407764;28;658341;-64
2022/11/28 13:12:18;;;;;;;25.67;11.33;;;5.50;99.90;;;;;;4407606;28;657815;-64
2022/11/28 13:15:09;;;;;;;29.87;13.70;;;5.30;99.90;;;;;;4388743;28;657416;-65
2022/11/28 13:17:58;;;;;;;49.10;23.75;;;5.20;99.90;;;;;;4407168;28;657445;-64
2022/11/28 13:20:46;;;;;;;27.15;13.13;;;5.20;99.90;;;;;;4411684;28;657611;-65
2022/11/28 13:23:34;;;;;;;22.40;11.30;;;5.20;99.90;;;;;;4429942;28;659298;-63
2022/11/28 13:26:31;;;;;;;25.10;10.17;;;5.10;99.90;;;;;;4411707;28;658628;-64
2022/11/28 13:29:23;;;;;;;25.30;10.73;;;5.10;99.90;;;;;;4407245;28;658082;-63
2022/11/28 13:32:15;;;;;;;28.57;12.73;;;5.10;99.90;;;;;;4410233;28;658182;-64
2022/11/28 13:35:02;;;;;;;32.93;14.97;;;5.10;99.90;;;;;;4411617;28;659173;-64
2022/11/28 13:37:54;;;;;;;38.10;17.60;;;5.00;99.90;;;;;;4429597;28;657690;-64
2022/11/28 13:40:42;;;;;;;48.22;20.95;;;5.00;99.90;;;;;;4407193;28;658795;-64
2022/11/28 13:43:34;;;;;;;39.40;17.17;;;5.00;99.90;;;;;;4429596;28;657317;-64
2022/11/28 13:46:22;;;;;;;34.23;15.27;;;5.10;99.90;;;;;;4386193;28;658548;-64
2022/11/28 13:49:18;;;;;;;35.63;15.97;;;5.10;99.90;;;;;;4433552;28;657828;-65
2022/11/28 13:52:32;;;;;;;39.10;17.53;;;6.50;99.90;;;;;;4394843;28;657780;-65
2022/11/28 13:55:38;;;;;;;33.47;15.40;;;9.10;99.90;;;;;;4403773;28;659048;-65
2022/11/28 13:58:26;;;;;;;32.97;16.03;;;10.80;91.40;;;;;;4401544;28;657183;-65
2022/11/28 14:01:14;;;;;;;33.43;16.90;;;12.50;80.70;;;;;;4428631;28;658527;-64
2022/11/28 14:04:06;;;;;;;29.60;14.85;;;13.10;71.20;;;;;;4409567;28;658783;-64
2022/11/28 14:06:57;;;;;;;29.03;14.37;;;12.60;68.90;;;;;;4409985;28;658463;-64
2022/11/28 14:09:49;;;;;;;27.05;13.63;;;11.00;71.00;;;;;;4403047;28;659001;-65
2022/11/28 14:12:38;;;;;;;24.53;10.83;;;9.70;77.60;;;;;;4406122;28;659776;-65
2022/11/28 14:15:29;;;;;;;25.10;11.63;;;8.50;82.90;;;;;;4411508;28;657576;-65
2022/11/28 14:18:25;;;;;;;32.67;13.80;;;7.50;90.80;;;;;;4411452;28;657446;-65
2022/11/28 14:21:21;;;;;;;44.07;19.07;;;6.70;97.10;;;;;;4383406;28;658583;-64